sensor_id;sensor_type;location;lat;lon;timestamp;P1;durP1;ratioP1;P2;durP2;ratioP2
7255;SDS011;3669;49.200;9.242;2023-07-29T00:01:13;3.20;;;2.88;;
7255;SDS011;3669;49.200;9.242;2023-07-29T00:03:40;3.35;;;3.05;;
7255;SDS011;3669;49.200;9.242;2023-07-29T00:06:09;4.05;;;3.35;;
7255;SDS011;3669;49.200;9.242;2023-07-29T00:08:36;2.90;;;2.70;;
7255;SDS011;3669;49.200;9.242;2023-07-29T00:11:03;2.80;;;2.60;;
7255;SDS011;3669;49.200;9.242;2023-07-29T00:13:30;3.17;;;2.85;;
7255;SDS011;3669;49.200;9.242;2023-07-29T00:15:57;3.83;;;3.15;;
7255;SDS011;3669;49.200;9.242;2023-07-29T00:18:24;2.63;;;2.42;;
7255;SDS011;3669;49.200;9.242;2023-07-29T00:20:53;2.63;;;2.40;;
7255;SDS011;3669;49.200;9.242;2023-07-29T00:23:21;2.70;;;2.50;;
7255;SDS011;3669;49.200;9.242;2023-07-29T00:25:48;5.50;;;5.10;;
7255;SDS011;3669;49.200;9.242;2023-07-29T00:28:15;18.85;;;18.00;;
7255;SDS011;3669;49.200;9.242;2023-07-29T00:30:42;27.35;;;25.90;;
7255;SDS011;3669;49.200;9.242;2023-07-29T00:33:09;22.77;;;21.50;;
7255;SDS011;3669;49.200;9.242;2023-07-29T00:35:36;22.25;;;21.15;;
7255;SDS011;3669;49.200;9.242;2023-07-29T00:38:03;17.65;;;16.67;;
7255;SDS011;3669;49.200;9.242;2023-07-29T00:40:31;11.77;;;11.13;;
7255;SDS011;3669;49.200;9.242;2023-07-29T00:43:02;10.25;;;9.70;;
7255;SDS011;3669;49.200;9.242;2023-07-29T00:45:29;5.05;;;4.78;;
7255;SDS011;3669;49.200;9.242;2023-07-29T00:47:57;2.28;;;2.08;;
7255;SDS011;3669;49.200;9.242;2023-07-29T00:50:25;2.60;;;2.40;;
7255;SDS011;3669;49.200;9.242;2023-07-29T00:52:56;2.55;;;2.35;;
7255;SDS011;3669;49.200;9.242;2023-07-29T00:55:24;3.10;;;2.60;;
7255;SDS011;3669;49.200;9.242;2023-07-29T00:57:53;3.35;;;2.30;;
7255;SDS011;3669;49.200;9.242;2023-07-29T01:00:21;2.70;;;2.38;;
7255;SDS011;3669;49.200;9.242;2023-07-29T01:02:52;3.72;;;2.40;;
7255;SDS011;3669;49.200;9.242;2023-07-29T01:05:20;2.67;;;2.40;;
7255;SDS011;3669;49.200;9.242;2023-07-29T01:07:55;2.10;;;2.00;;
7255;SDS011;3669;49.200;9.242;2023-07-29T01:13:24;4.05;;;2.28;;
7255;SDS011;3669;49.200;9.242;2023-07-29T01:15:52;2.35;;;2.15;;
7255;SDS011;3669;49.200;9.242;2023-07-29T01:18:23;2.28;;;2.10;;
7255;SDS011;3669;49.200;9.242;2023-07-29T01:20:51;2.45;;;2.25;;
7255;SDS011;3669;49.200;9.242;2023-07-29T01:23:24;2.40;;;2.20;;
7255;SDS011;3669;49.200;9.242;2023-07-29T01:25:51;2.45;;;2.25;;
7255;SDS011;3669;49.200;9.242;2023-07-29T01:28:18;2.63;;;2.30;;
7255;SDS011;3669;49.200;9.242;2023-07-29T01:30:46;2.78;;;2.13;;
7255;SDS011;3669;49.200;9.242;2023-07-29T01:33:35;2.00;;;1.90;;
7255;SDS011;3669;49.200;9.242;2023-07-29T01:36:13;2.45;;;2.25;;
7255;SDS011;3669;49.200;9.242;2023-07-29T01:38:42;2.75;;;1.95;;
7255;SDS011;3669;49.200;9.242;2023-07-29T01:41:11;2.15;;;1.95;;
7255;SDS011;3669;49.200;9.242;2023-07-29T01:43:39;2.22;;;2.10;;
7255;SDS011;3669;49.200;9.242;2023-07-29T01:46:14;2.22;;;2.03;;
7255;SDS011;3669;49.200;9.242;2023-07-29T01:48:41;3.33;;;2.33;;
7255;SDS011;3669;49.200;9.242;2023-07-29T01:51:11;1.90;;;1.80;;
7255;SDS011;3669;49.200;9.242;2023-07-29T01:53:38;1.63;;;1.52;;
7255;SDS011;3669;49.200;9.242;2023-07-29T01:56:05;1.88;;;1.77;;
7255;SDS011;3669;49.200;9.242;2023-07-29T01:58:33;2.40;;;2.03;;
7255;SDS011;3669;49.200;9.242;2023-07-29T02:01:00;2.65;;;2.10;;
7255;SDS011;3669;49.200;9.242;2023-07-29T02:03:27;2.25;;;2.05;;
7255;SDS011;3669;49.200;9.242;2023-07-29T02:05:55;3.25;;;1.70;;
7255;SDS011;3669;49.200;9.242;2023-07-29T02:08:22;2.03;;;1.80;;
7255;SDS011;3669;49.200;9.242;2023-07-29T02:10:49;2.28;;;1.88;;
7255;SDS011;3669;49.200;9.242;2023-07-29T02:13:16;2.08;;;1.88;;
7255;SDS011;3669;49.200;9.242;2023-07-29T02:15:44;2.03;;;1.83;;
7255;SDS011;3669;49.200;9.242;2023-07-29T02:18:11;2.17;;;1.85;;
7255;SDS011;3669;49.200;9.242;2023-07-29T02:20:38;2.55;;;2.10;;
7255;SDS011;3669;49.200;9.242;2023-07-29T02:23:05;1.80;;;1.70;;
7255;SDS011;3669;49.200;9.242;2023-07-29T02:25:34;1.80;;;1.70;;
7255;SDS011;3669;49.200;9.242;2023-07-29T02:28:02;2.10;;;1.80;;
7255;SDS011;3669;49.200;9.242;2023-07-29T02:30:30;2.25;;;2.05;;
7255;SDS011;3669;49.200;9.242;2023-07-29T02:32:56;1.80;;;1.70;;
7255;SDS011;3669;49.200;9.242;2023-07-29T02:35:25;1.98;;;1.88;;
7255;SDS011;3669;49.200;9.242;2023-07-29T02:37:54;2.78;;;1.98;;
7255;SDS011;3669;49.200;9.242;2023-07-29T02:40:21;1.92;;;1.83;;
7255;SDS011;3669;49.200;9.242;2023-07-29T02:42:48;2.10;;;1.88;;
7255;SDS011;3669;49.200;9.242;2023-07-29T02:45:15;2.03;;;1.83;;
7255;SDS011;3669;49.200;9.242;2023-07-29T02:47:43;3.08;;;1.77;;
7255;SDS011;3669;49.200;9.242;2023-07-29T02:50:10;1.70;;;1.60;;
7255;SDS011;3669;49.200;9.242;2023-07-29T02:52:37;2.03;;;1.80;;
7255;SDS011;3669;49.200;9.242;2023-07-29T02:55:04;2.03;;;1.83;;
7255;SDS011;3669;49.200;9.242;2023-07-29T02:57:31;2.08;;;1.60;;
7255;SDS011;3669;49.200;9.242;2023-07-29T02:59:58;2.45;;;1.70;;
7255;SDS011;3669;49.200;9.242;2023-07-29T03:02:25;2.00;;;1.90;;
7255;SDS011;3669;49.200;9.242;2023-07-29T03:04:52;13.07;;;12.35;;
7255;SDS011;3669;49.200;9.242;2023-07-29T03:07:19;19.83;;;18.88;;
7255;SDS011;3669;49.200;9.242;2023-07-29T03:09:46;30.83;;;29.33;;
7255;SDS011;3669;49.200;9.242;2023-07-29T03:12:13;23.10;;;21.92;;
7255;SDS011;3669;49.200;9.242;2023-07-29T03:14:40;18.83;;;17.98;;
7255;SDS011;3669;49.200;9.242;2023-07-29T03:17:07;15.52;;;14.85;;
7255;SDS011;3669;49.200;9.242;2023-07-29T03:19:34;2.65;;;2.42;;
7255;SDS011;3669;49.200;9.242;2023-07-29T03:22:02;1.90;;;1.80;;
7255;SDS011;3669;49.200;9.242;2023-07-29T03:24:29;1.70;;;1.60;;
7255;SDS011;3669;49.200;9.242;2023-07-29T03:26:56;11.30;;;10.73;;
7255;SDS011;3669;49.200;9.242;2023-07-29T03:29:23;2.55;;;1.70;;
7255;SDS011;3669;49.200;9.242;2023-07-29T03:31:50;2.10;;;1.80;;
7255;SDS011;3669;49.200;9.242;2023-07-29T03:34:17;2.00;;;1.90;;
7255;SDS011;3669;49.200;9.242;2023-07-29T03:36:44;2.25;;;1.88;;
7255;SDS011;3669;49.200;9.242;2023-07-29T03:39:13;1.67;;;1.58;;
7255;SDS011;3669;49.200;9.242;2023-07-29T03:41:41;2.00;;;1.80;;
7255;SDS011;3669;49.200;9.242;2023-07-29T03:44:08;2.03;;;1.92;;
7255;SDS011;3669;49.200;9.242;2023-07-29T03:46:35;1.70;;;1.60;;
7255;SDS011;3669;49.200;9.242;2023-07-29T03:49:02;2.97;;;2.78;;
7255;SDS011;3669;49.200;9.242;2023-07-29T03:51:29;1.95;;;1.80;;
7255;SDS011;3669;49.200;9.242;2023-07-29T03:53:56;1.52;;;1.42;;
7255;SDS011;3669;49.200;9.242;2023-07-29T03:56:23;1.98;;;1.80;;
7255;SDS011;3669;49.200;9.242;2023-07-29T03:58:51;1.85;;;1.75;;
7255;SDS011;3669;49.200;9.242;2023-07-29T04:01:19;1.90;;;1.75;;
7255;SDS011;3669;49.200;9.242;2023-07-29T04:03:46;2.92;;;1.83;;
7255;SDS011;3669;49.200;9.242;2023-07-29T04:06:13;2.95;;;1.75;;
7255;SDS011;3669;49.200;9.242;2023-07-29T04:08:41;1.83;;;1.73;;
7255;SDS011;3669;49.200;9.242;2023-07-29T04:11:08;3.33;;;1.70;;
7255;SDS011;3669;49.200;9.242;2023-07-29T04:13:35;1.80;;;1.70;;
7255;SDS011;3669;49.200;9.242;2023-07-29T04:16:04;2.25;;;1.83;;
7255;SDS011;3669;49.200;9.242;2023-07-29T04:18:31;2.30;;;1.90;;
7255;SDS011;3669;49.200;9.242;2023-07-29T04:20:59;1.73;;;1.63;;
7255;SDS011;3669;49.200;9.242;2023-07-29T04:23:26;1.98;;;1.88;;
7255;SDS011;3669;49.200;9.242;2023-07-29T04:25:53;1.83;;;1.70;;
7255;SDS011;3669;49.200;9.242;2023-07-29T04:28:20;1.73;;;1.60;;
7255;SDS011;3669;49.200;9.242;2023-07-29T04:30:47;2.10;;;1.88;;
7255;SDS011;3669;49.200;9.242;2023-07-29T04:33:14;2.22;;;1.70;;
7255;SDS011;3669;49.200;9.242;2023-07-29T04:35:41;1.98;;;1.77;;
7255;SDS011;3669;49.200;9.242;2023-07-29T04:40:34;2.05;;;1.85;;
7255;SDS011;3669;49.200;9.242;2023-07-29T04:43:02;1.90;;;1.80;;
7255;SDS011;3669;49.200;9.242;2023-07-29T04:45:29;2.35;;;1.95;;
7255;SDS011;3669;49.200;9.242;2023-07-29T04:47:57;2.20;;;2.00;;
7255;SDS011;3669;49.200;9.242;2023-07-29T04:50:25;2.72;;;2.03;;
7255;SDS011;3669;49.200;9.242;2023-07-29T04:52:52;3.20;;;2.25;;
7255;SDS011;3669;49.200;9.242;2023-07-29T04:55:19;2.00;;;1.90;;
7255;SDS011;3669;49.200;9.242;2023-07-29T04:57:46;14.75;;;13.85;;
7255;SDS011;3669;49.200;9.242;2023-07-29T05:00:13;21.15;;;20.17;;
7255;SDS011;3669;49.200;9.242;2023-07-29T05:02:40;13.38;;;12.55;;
7255;SDS011;3669;49.200;9.242;2023-07-29T05:05:07;22.05;;;21.00;;
7255;SDS011;3669;49.200;9.242;2023-07-29T05:07:35;20.55;;;19.52;;
7255;SDS011;3669;49.200;9.242;2023-07-29T05:10:01;14.70;;;13.60;;
7255;SDS011;3669;49.200;9.242;2023-07-29T05:12:28;3.80;;;3.30;;
7255;SDS011;3669;49.200;9.242;2023-07-29T05:14:55;3.10;;;2.33;;
7255;SDS011;3669;49.200;9.242;2023-07-29T05:17:22;4.35;;;2.20;;
7255;SDS011;3669;49.200;9.242;2023-07-29T05:19:49;4.35;;;2.35;;
7255;SDS011;3669;49.200;9.242;2023-07-29T05:26:14;12.10;;;10.90;;
7255;SDS011;3669;49.200;9.242;2023-07-29T05:28:43;7.25;;;4.10;;
7255;SDS011;3669;49.200;9.242;2023-07-29T05:31:10;6.72;;;3.42;;
7255;SDS011;3669;49.200;9.242;2023-07-29T05:33:37;7.30;;;2.95;;
7255;SDS011;3669;49.200;9.242;2023-07-29T05:36:04;7.32;;;3.20;;
7255;SDS011;3669;49.200;9.242;2023-07-29T05:38:31;5.07;;;2.60;;
7255;SDS011;3669;49.200;9.242;2023-07-29T05:40:58;6.22;;;2.78;;
7255;SDS011;3669;49.200;9.242;2023-07-29T05:43:26;4.28;;;2.40;;
7255;SDS011;3669;49.200;9.242;2023-07-29T05:45:54;6.30;;;2.53;;
7255;SDS011;3669;49.200;9.242;2023-07-29T05:48:21;5.07;;;2.53;;
7255;SDS011;3669;49.200;9.242;2023-07-29T05:50:48;3.35;;;2.20;;
7255;SDS011;3669;49.200;9.242;2023-07-29T05:53:16;3.85;;;2.38;;
7255;SDS011;3669;49.200;9.242;2023-07-29T05:55:43;4.72;;;2.47;;
7255;SDS011;3669;49.200;9.242;2023-07-29T05:58:10;2.67;;;2.45;;
7255;SDS011;3669;49.200;9.242;2023-07-29T06:00:38;3.33;;;2.13;;
7255;SDS011;3669;49.200;9.242;2023-07-29T06:03:05;3.13;;;2.60;;
7255;SDS011;3669;49.200;9.242;2023-07-29T06:05:32;2.13;;;1.90;;
7255;SDS011;3669;49.200;9.242;2023-07-29T06:07:59;2.30;;;2.10;;
7255;SDS011;3669;49.200;9.242;2023-07-29T06:10:26;3.95;;;2.22;;
7255;SDS011;3669;49.200;9.242;2023-07-29T06:12:53;4.20;;;2.17;;
7255;SDS011;3669;49.200;9.242;2023-07-29T06:15:20;3.38;;;2.33;;
7255;SDS011;3669;49.200;9.242;2023-07-29T06:17:48;3.42;;;2.22;;
7255;SDS011;3669;49.200;9.242;2023-07-29T06:20:16;2.80;;;2.00;;
7255;SDS011;3669;49.200;9.242;2023-07-29T06:22:43;2.60;;;2.38;;
7255;SDS011;3669;49.200;9.242;2023-07-29T06:25:10;2.60;;;2.40;;
7255;SDS011;3669;49.200;9.242;2023-07-29T06:27:37;3.25;;;2.08;;
7255;SDS011;3669;49.200;9.242;2023-07-29T06:30:04;4.78;;;2.42;;
7255;SDS011;3669;49.200;9.242;2023-07-29T06:32:31;2.55;;;2.35;;
7255;SDS011;3669;49.200;9.242;2023-07-29T06:35:07;2.65;;;2.45;;
7255;SDS011;3669;49.200;9.242;2023-07-29T06:37:59;2.60;;;2.40;;
7255;SDS011;3669;49.200;9.242;2023-07-29T06:40:26;2.88;;;2.60;;
7255;SDS011;3669;49.200;9.242;2023-07-29T06:42:53;2.55;;;2.35;;
7255;SDS011;3669;49.200;9.242;2023-07-29T06:45:21;3.00;;;2.50;;
7255;SDS011;3669;49.200;9.242;2023-07-29T06:47:48;4.43;;;2.42;;
7255;SDS011;3669;49.200;9.242;2023-07-29T06:50:15;2.75;;;2.55;;
7255;SDS011;3669;49.200;9.242;2023-07-29T06:52:43;3.03;;;2.67;;
7255;SDS011;3669;49.200;9.242;2023-07-29T06:55:10;2.67;;;2.30;;
7255;SDS011;3669;49.200;9.242;2023-07-29T06:57:37;3.25;;;2.30;;
7255;SDS011;3669;49.200;9.242;2023-07-29T07:00:04;5.20;;;2.28;;
7255;SDS011;3669;49.200;9.242;2023-07-29T07:02:32;2.90;;;2.70;;
7255;SDS011;3669;49.200;9.242;2023-07-29T07:04:59;2.72;;;2.53;;
7255;SDS011;3669;49.200;9.242;2023-07-29T07:07:26;2.50;;;2.30;;
7255;SDS011;3669;49.200;9.242;2023-07-29T07:09:54;2.97;;;2.38;;
7255;SDS011;3669;49.200;9.242;2023-07-29T07:12:21;2.53;;;2.30;;
7255;SDS011;3669;49.200;9.242;2023-07-29T07:14:48;2.58;;;2.38;;
7255;SDS011;3669;49.200;9.242;2023-07-29T07:17:15;2.78;;;2.58;;
7255;SDS011;3669;49.200;9.242;2023-07-29T07:19:42;2.90;;;2.70;;
7255;SDS011;3669;49.200;9.242;2023-07-29T07:22:09;3.20;;;2.90;;
7255;SDS011;3669;49.200;9.242;2023-07-29T07:24:36;12.13;;;11.50;;
7255;SDS011;3669;49.200;9.242;2023-07-29T07:27:03;5.38;;;4.88;;
7255;SDS011;3669;49.200;9.242;2023-07-29T07:29:31;4.10;;;2.70;;
7255;SDS011;3669;49.200;9.242;2023-07-29T07:31:58;4.13;;;2.78;;
7255;SDS011;3669;49.200;9.242;2023-07-29T07:34:25;3.47;;;3.15;;
7255;SDS011;3669;49.200;9.242;2023-07-29T07:36:52;3.00;;;2.70;;
7255;SDS011;3669;49.200;9.242;2023-07-29T07:39:19;2.83;;;2.47;;
7255;SDS011;3669;49.200;9.242;2023-07-29T07:41:46;3.30;;;2.47;;
7255;SDS011;3669;49.200;9.242;2023-07-29T07:44:13;3.45;;;3.13;;
7255;SDS011;3669;49.200;9.242;2023-07-29T07:46:43;3.00;;;2.70;;
7255;SDS011;3669;49.200;9.242;2023-07-29T07:49:11;2.75;;;2.55;;
7255;SDS011;3669;49.200;9.242;2023-07-29T07:51:38;14.63;;;13.68;;
7255;SDS011;3669;49.200;9.242;2023-07-29T07:54:05;21.67;;;20.52;;
7255;SDS011;3669;49.200;9.242;2023-07-29T07:56:32;22.38;;;21.13;;
7255;SDS011;3669;49.200;9.242;2023-07-29T07:59:00;29.67;;;28.23;;
7255;SDS011;3669;49.200;9.242;2023-07-29T08:01:27;19.88;;;18.77;;
7255;SDS011;3669;49.200;9.242;2023-07-29T08:03:54;16.02;;;15.20;;
7255;SDS011;3669;49.200;9.242;2023-07-29T08:06:21;6.93;;;6.55;;
7255;SDS011;3669;49.200;9.242;2023-07-29T08:08:48;3.58;;;2.70;;
7255;SDS011;3669;49.200;9.242;2023-07-29T08:11:15;4.43;;;2.92;;
7255;SDS011;3669;49.200;9.242;2023-07-29T08:13:42;2.85;;;2.42;;
7255;SDS011;3669;49.200;9.242;2023-07-29T08:16:09;2.58;;;2.38;;
7255;SDS011;3669;49.200;9.242;2023-07-29T08:18:36;2.80;;;2.25;;
7255;SDS011;3669;49.200;9.242;2023-07-29T08:21:03;3.10;;;2.60;;
7255;SDS011;3669;49.200;9.242;2023-07-29T08:23:31;2.70;;;2.50;;
7255;SDS011;3669;49.200;9.242;2023-07-29T08:25:59;3.90;;;2.90;;
7255;SDS011;3669;49.200;9.242;2023-07-29T08:28:28;2.75;;;2.55;;
7255;SDS011;3669;49.200;9.242;2023-07-29T08:30:55;2.83;;;2.63;;
7255;SDS011;3669;49.200;9.242;2023-07-29T08:33:23;2.92;;;2.58;;
7255;SDS011;3669;49.200;9.242;2023-07-29T08:35:50;3.50;;;2.40;;
7255;SDS011;3669;49.200;9.242;2023-07-29T08:38:17;2.45;;;2.25;;
7255;SDS011;3669;49.200;9.242;2023-07-29T08:43:29;2.83;;;2.60;;
7255;SDS011;3669;49.200;9.242;2023-07-29T08:45:57;2.92;;;2.33;;
7255;SDS011;3669;49.200;9.242;2023-07-29T08:48:29;2.35;;;2.15;;
7255;SDS011;3669;49.200;9.242;2023-07-29T08:51:00;2.38;;;2.10;;
7255;SDS011;3669;49.200;9.242;2023-07-29T08:53:28;2.80;;;2.40;;
7255;SDS011;3669;49.200;9.242;2023-07-29T08:55:56;2.55;;;2.35;;
7255;SDS011;3669;49.200;9.242;2023-07-29T08:58:23;2.40;;;2.20;;
7255;SDS011;3669;49.200;9.242;2023-07-29T09:00:51;2.67;;;2.47;;
7255;SDS011;3669;49.200;9.242;2023-07-29T09:03:19;2.53;;;2.33;;
7255;SDS011;3669;49.200;9.242;2023-07-29T09:05:46;2.92;;;2.60;;
7255;SDS011;3669;49.200;9.242;2023-07-29T09:08:14;3.80;;;2.50;;
7255;SDS011;3669;49.200;9.242;2023-07-29T09:10:41;2.97;;;2.38;;
7255;SDS011;3669;49.200;9.242;2023-07-29T09:13:08;3.22;;;2.50;;
7255;SDS011;3669;49.200;9.242;2023-07-29T09:15:38;2.78;;;2.58;;
7255;SDS011;3669;49.200;9.242;2023-07-29T09:18:10;3.78;;;2.72;;
7255;SDS011;3669;49.200;9.242;2023-07-29T09:20:37;3.45;;;2.72;;
7255;SDS011;3669;49.200;9.242;2023-07-29T09:23:07;3.05;;;2.75;;
7255;SDS011;3669;49.200;9.242;2023-07-29T09:25:35;3.10;;;2.30;;
7255;SDS011;3669;49.200;9.242;2023-07-29T09:28:07;2.80;;;2.50;;
7255;SDS011;3669;49.200;9.242;2023-07-29T09:30:35;2.55;;;2.35;;
7255;SDS011;3669;49.200;9.242;2023-07-29T09:33:02;3.28;;;2.30;;
7255;SDS011;3669;49.200;9.242;2023-07-29T09:35:32;2.63;;;2.42;;
7255;SDS011;3669;49.200;9.242;2023-07-29T09:37:59;3.03;;;2.40;;
7255;SDS011;3669;49.200;9.242;2023-07-29T09:40:27;2.60;;;2.40;;
7255;SDS011;3669;49.200;9.242;2023-07-29T09:42:54;2.75;;;2.38;;
7255;SDS011;3669;49.200;9.242;2023-07-29T09:45:26;2.60;;;2.40;;
7255;SDS011;3669;49.200;9.242;2023-07-29T09:47:53;3.15;;;2.15;;
7255;SDS011;3669;49.200;9.242;2023-07-29T09:50:23;4.35;;;4.05;;
7255;SDS011;3669;49.200;9.242;2023-07-29T09:52:51;5.60;;;5.30;;
7255;SDS011;3669;49.200;9.242;2023-07-29T09:55:19;13.23;;;12.40;;
7255;SDS011;3669;49.200;9.242;2023-07-29T09:57:47;15.25;;;14.30;;
7255;SDS011;3669;49.200;9.242;2023-07-29T10:00:14;37.10;;;35.35;;
7255;SDS011;3669;49.200;9.242;2023-07-29T10:02:42;14.65;;;13.95;;
7255;SDS011;3669;49.200;9.242;2023-07-29T10:05:10;17.15;;;16.27;;
7255;SDS011;3669;49.200;9.242;2023-07-29T10:07:37;5.45;;;5.03;;
7255;SDS011;3669;49.200;9.242;2023-07-29T10:10:05;2.83;;;2.50;;
7255;SDS011;3669;49.200;9.242;2023-07-29T10:12:33;2.47;;;2.28;;
7255;SDS011;3669;49.200;9.242;2023-07-29T10:15:04;2.50;;;2.30;;
7255;SDS011;3669;49.200;9.242;2023-07-29T10:17:39;2.53;;;2.33;;
7255;SDS011;3669;49.200;9.242;2023-07-29T10:20:08;2.78;;;2.53;;
7255;SDS011;3669;49.200;9.242;2023-07-29T10:22:38;3.03;;;2.50;;
7255;SDS011;3669;49.200;9.242;2023-07-29T10:25:10;2.30;;;2.10;;
7255;SDS011;3669;49.200;9.242;2023-07-29T10:27:43;2.50;;;2.30;;
7255;SDS011;3669;49.200;9.242;2023-07-29T10:30:11;2.63;;;2.22;;
7255;SDS011;3669;49.200;9.242;2023-07-29T10:32:41;3.53;;;2.40;;
7255;SDS011;3669;49.200;9.242;2023-07-29T10:35:12;2.78;;;2.13;;
7255;SDS011;3669;49.200;9.242;2023-07-29T10:37:40;2.42;;;2.22;;
7255;SDS011;3669;49.200;9.242;2023-07-29T10:40:08;2.60;;;2.40;;
7255;SDS011;3669;49.200;9.242;2023-07-29T10:42:37;2.10;;;2.00;;
7255;SDS011;3669;49.200;9.242;2023-07-29T10:45:18;2.55;;;2.35;;
7255;SDS011;3669;49.200;9.242;2023-07-29T10:47:46;2.75;;;2.10;;
7255;SDS011;3669;49.200;9.242;2023-07-29T10:50:18;2.70;;;2.50;;
7255;SDS011;3669;49.200;9.242;2023-07-29T10:52:48;2.80;;;2.60;;
7255;SDS011;3669;49.200;9.242;2023-07-29T10:55:24;2.38;;;2.20;;
7255;SDS011;3669;49.200;9.242;2023-07-29T10:57:51;2.50;;;2.30;;
7255;SDS011;3669;49.200;9.242;2023-07-29T11:00:19;2.10;;;2.00;;
7255;SDS011;3669;49.200;9.242;2023-07-29T11:02:56;2.95;;;2.40;;
7255;SDS011;3669;49.200;9.242;2023-07-29T11:05:24;2.47;;;2.28;;
7255;SDS011;3669;49.200;9.242;2023-07-29T11:07:51;4.80;;;4.53;;
7255;SDS011;3669;49.200;9.242;2023-07-29T11:10:18;23.42;;;22.42;;
7255;SDS011;3669;49.200;9.242;2023-07-29T11:12:46;23.23;;;22.02;;
7255;SDS011;3669;49.200;9.242;2023-07-29T11:15:15;2.90;;;2.70;;
7255;SDS011;3669;49.200;9.242;2023-07-29T11:17:50;2.42;;;2.20;;
7255;SDS011;3669;49.200;9.242;2023-07-29T11:20:18;2.60;;;2.40;;
7255;SDS011;3669;49.200;9.242;2023-07-29T11:22:46;2.78;;;2.28;;
7255;SDS011;3669;49.200;9.242;2023-07-29T11:25:15;2.17;;;1.90;;
7255;SDS011;3669;49.200;9.242;2023-07-29T11:27:42;2.17;;;2.08;;
7255;SDS011;3669;49.200;9.242;2023-07-29T11:30:10;2.15;;;2.05;;
7255;SDS011;3669;49.200;9.242;2023-07-29T11:32:38;2.45;;;2.25;;
7255;SDS011;3669;49.200;9.242;2023-07-29T11:35:07;2.00;;;1.77;;
7255;SDS011;3669;49.200;9.242;2023-07-29T11:37:35;2.10;;;2.00;;
7255;SDS011;3669;49.200;9.242;2023-07-29T11:40:03;2.28;;;2.08;;
7255;SDS011;3669;49.200;9.242;2023-07-29T11:42:34;2.75;;;1.85;;
7255;SDS011;3669;49.200;9.242;2023-07-29T11:45:02;2.33;;;1.88;;
7255;SDS011;3669;49.200;9.242;2023-07-29T11:47:32;2.17;;;1.98;;
7255;SDS011;3669;49.200;9.242;2023-07-29T11:50:07;2.00;;;1.80;;
7255;SDS011;3669;49.200;9.242;2023-07-29T11:52:40;2.97;;;2.00;;
7255;SDS011;3669;49.200;9.242;2023-07-29T11:55:08;2.00;;;1.70;;
7255;SDS011;3669;49.200;9.242;2023-07-29T11:57:36;1.90;;;1.80;;
7255;SDS011;3669;49.200;9.242;2023-07-29T12:00:04;2.05;;;1.85;;
7255;SDS011;3669;49.200;9.242;2023-07-29T12:02:32;1.98;;;1.88;;
7255;SDS011;3669;49.200;9.242;2023-07-29T12:05:02;2.00;;;1.80;;
7255;SDS011;3669;49.200;9.242;2023-07-29T12:07:30;1.85;;;1.75;;
7255;SDS011;3669;49.200;9.242;2023-07-29T12:09:57;2.70;;;2.00;;
7255;SDS011;3669;49.200;9.242;2023-07-29T12:12:24;2.22;;;1.90;;
7255;SDS011;3669;49.200;9.242;2023-07-29T12:14:53;1.88;;;1.77;;
7255;SDS011;3669;49.200;9.242;2023-07-29T12:17:21;1.90;;;1.80;;
7255;SDS011;3669;49.200;9.242;2023-07-29T12:19:48;2.13;;;1.92;;
7255;SDS011;3669;49.200;9.242;2023-07-29T12:22:18;2.20;;;1.77;;
7255;SDS011;3669;49.200;9.242;2023-07-29T12:24:45;11.60;;;10.98;;
7255;SDS011;3669;49.200;9.242;2023-07-29T12:27:12;2.20;;;1.90;;
7255;SDS011;3669;49.200;9.242;2023-07-29T12:29:44;2.33;;;2.13;;
7255;SDS011;3669;49.200;9.242;2023-07-29T12:32:14;2.30;;;2.00;;
7255;SDS011;3669;49.200;9.242;2023-07-29T12:34:41;2.40;;;1.88;;
7255;SDS011;3669;49.200;9.242;2023-07-29T12:37:08;2.20;;;2.00;;
7255;SDS011;3669;49.200;9.242;2023-07-29T12:39:40;2.72;;;2.10;;
7255;SDS011;3669;49.200;9.242;2023-07-29T12:42:09;3.83;;;1.90;;
7255;SDS011;3669;49.200;9.242;2023-07-29T12:44:37;2.30;;;2.10;;
7255;SDS011;3669;49.200;9.242;2023-07-29T12:47:05;3.83;;;2.15;;
7255;SDS011;3669;49.200;9.242;2023-07-29T12:49:32;3.40;;;1.90;;
7255;SDS011;3669;49.200;9.242;2023-07-29T12:51:59;2.40;;;1.75;;
7255;SDS011;3669;49.200;9.242;2023-07-29T12:54:26;2.00;;;1.80;;
7255;SDS011;3669;49.200;9.242;2023-07-29T12:56:53;2.25;;;2.05;;
7255;SDS011;3669;49.200;9.242;2023-07-29T12:59:20;2.58;;;1.90;;
7255;SDS011;3669;49.200;9.242;2023-07-29T13:01:48;2.40;;;1.92;;
7255;SDS011;3669;49.200;9.242;2023-07-29T13:04:15;2.38;;;2.00;;
7255;SDS011;3669;49.200;9.242;2023-07-29T13:06:42;8.45;;;7.95;;
7255;SDS011;3669;49.200;9.242;2023-07-29T13:09:09;16.05;;;15.27;;
7255;SDS011;3669;49.200;9.242;2023-07-29T13:11:36;23.60;;;22.33;;
7255;SDS011;3669;49.200;9.242;2023-07-29T13:14:03;30.38;;;28.83;;
7255;SDS011;3669;49.200;9.242;2023-07-29T13:16:30;24.65;;;23.42;;
7255;SDS011;3669;49.200;9.242;2023-07-29T13:18:57;14.73;;;13.82;;
7255;SDS011;3669;49.200;9.242;2023-07-29T13:21:24;2.70;;;2.28;;
7255;SDS011;3669;49.200;9.242;2023-07-29T13:23:51;2.10;;;1.90;;
7255;SDS011;3669;49.200;9.242;2023-07-29T13:26:18;2.28;;;1.73;;
7255;SDS011;3669;49.200;9.242;2023-07-29T13:28:46;2.67;;;1.80;;
7255;SDS011;3669;49.200;9.242;2023-07-29T13:31:13;2.28;;;1.80;;
7255;SDS011;3669;49.200;9.242;2023-07-29T13:33:40;2.60;;;1.85;;
7255;SDS011;3669;49.200;9.242;2023-07-29T13:36:07;2.53;;;2.03;;
7255;SDS011;3669;49.200;9.242;2023-07-29T13:38:34;2.10;;;1.98;;
7255;SDS011;3669;49.200;9.242;2023-07-29T13:41:02;2.47;;;2.00;;
7255;SDS011;3669;49.200;9.242;2023-07-29T13:43:29;2.28;;;2.08;;
7255;SDS011;3669;49.200;9.242;2023-07-29T13:45:56;2.97;;;2.17;;
7255;SDS011;3669;49.200;9.242;2023-07-29T13:48:23;1.77;;;1.67;;
7255;SDS011;3669;49.200;9.242;2023-07-29T13:50:52;2.97;;;2.03;;
7255;SDS011;3669;49.200;9.242;2023-07-29T13:53:22;2.97;;;2.20;;
7255;SDS011;3669;49.200;9.242;2023-07-29T13:55:49;2.13;;;2.00;;
7255;SDS011;3669;49.200;9.242;2023-07-29T13:58:16;3.08;;;1.98;;
7255;SDS011;3669;49.200;9.242;2023-07-29T14:00:44;2.10;;;2.00;;
7255;SDS011;3669;49.200;9.242;2023-07-29T14:03:11;2.42;;;2.10;;
7255;SDS011;3669;49.200;9.242;2023-07-29T14:05:38;3.92;;;2.03;;
7255;SDS011;3669;49.200;9.242;2023-07-29T14:08:05;2.47;;;1.90;;
7255;SDS011;3669;49.200;9.242;2023-07-29T14:10:33;2.20;;;2.00;;
7255;SDS011;3669;49.200;9.242;2023-07-29T14:13:00;1.80;;;1.70;;
7255;SDS011;3669;49.200;9.242;2023-07-29T14:15:27;1.90;;;1.80;;
7255;SDS011;3669;49.200;9.242;2023-07-29T14:17:54;2.40;;;2.03;;
7255;SDS011;3669;49.200;9.242;2023-07-29T14:20:21;2.33;;;2.00;;
7255;SDS011;3669;49.200;9.242;2023-07-29T14:22:49;2.75;;;1.88;;
7255;SDS011;3669;49.200;9.242;2023-07-29T14:25:32;2.25;;;2.05;;
7255;SDS011;3669;49.200;9.242;2023-07-29T14:28:04;2.33;;;2.13;;
7255;SDS011;3669;49.200;9.242;2023-07-29T14:30:31;2.08;;;1.90;;
7255;SDS011;3669;49.200;9.242;2023-07-29T14:32:58;2.30;;;1.92;;
7255;SDS011;3669;49.200;9.242;2023-07-29T14:35:25;2.33;;;1.83;;
7255;SDS011;3669;49.200;9.242;2023-07-29T14:37:53;2.95;;;2.10;;
7255;SDS011;3669;49.200;9.242;2023-07-29T14:40:20;1.85;;;1.75;;
7255;SDS011;3669;49.200;9.242;2023-07-29T14:42:47;2.80;;;2.15;;
7255;SDS011;3669;49.200;9.242;2023-07-29T14:45:14;3.97;;;2.10;;
7255;SDS011;3669;49.200;9.242;2023-07-29T14:48:16;2.20;;;2.00;;
7255;SDS011;3669;49.200;9.242;2023-07-29T14:50:36;3.13;;;2.00;;
7255;SDS011;3669;49.200;9.242;2023-07-29T14:53:03;2.25;;;2.05;;
7255;SDS011;3669;49.200;9.242;2023-07-29T14:55:30;2.25;;;2.05;;
7255;SDS011;3669;49.200;9.242;2023-07-29T14:57:57;2.08;;;1.70;;
7255;SDS011;3669;49.200;9.242;2023-07-29T15:00:24;4.10;;;2.08;;
7255;SDS011;3669;49.200;9.242;2023-07-29T15:02:51;2.10;;;1.90;;
7255;SDS011;3669;49.200;9.242;2023-07-29T15:05:19;2.30;;;2.10;;
7255;SDS011;3669;49.200;9.242;2023-07-29T15:07:46;3.42;;;1.98;;
7255;SDS011;3669;49.200;9.242;2023-07-29T15:10:16;2.20;;;2.00;;
7255;SDS011;3669;49.200;9.242;2023-07-29T15:12:43;2.20;;;2.00;;
7255;SDS011;3669;49.200;9.242;2023-07-29T15:15:11;2.13;;;1.90;;
7255;SDS011;3669;49.200;9.242;2023-07-29T15:17:38;2.50;;;2.15;;
7255;SDS011;3669;49.200;9.242;2023-07-29T15:20:05;3.55;;;2.00;;
7255;SDS011;3669;49.200;9.242;2023-07-29T15:22:33;2.20;;;2.00;;
7255;SDS011;3669;49.200;9.242;2023-07-29T15:25:00;2.15;;;1.95;;
7255;SDS011;3669;49.200;9.242;2023-07-29T15:27:28;2.40;;;2.20;;
7255;SDS011;3669;49.200;9.242;2023-07-29T15:29:55;5.43;;;5.00;;